createdAt,value
2022-09-24T00:55:05.129Z,12.92
2022-09-24T01:01:41.752Z,12.94
2022-09-24T01:04:56.627Z,12.93
2022-09-24T01:11:33.259Z,12.88
2022-09-24T01:14:56.147Z,12.87
2022-09-24T01:18:15.717Z,12.92
2022-09-24T01:21:39.619Z,12.89
2022-09-24T01:34:47.753Z,12.73
2022-09-24T01:52:09.725Z,12.66
2022-09-24T01:58:59.734Z,12.67
2022-09-24T02:01:33.064Z,12.64
2022-09-24T02:04:07.201Z,12.66
2022-09-24T02:06:41.491Z,12.64
2022-09-24T02:09:30.366Z,12.62
2022-09-24T02:12:02.767Z,12.56
2022-09-24T02:14:33.934Z,12.55
2022-09-24T02:17:04.473Z,12.58
2022-09-24T02:19:37.295Z,12.59
2022-09-24T02:22:09.449Z,12.55
2022-09-24T02:24:46.549Z,12.52
2022-09-24T02:27:14.555Z,12.49
2022-09-24T02:29:42.211Z,12.45
2022-09-24T02:32:13.589Z,12.42
2022-09-24T02:34:46.329Z,12.39
2022-09-24T02:37:15.667Z,12.37
2022-09-24T02:39:43.631Z,12.28
2022-09-24T02:42:15.146Z,12.24
2022-09-24T02:44:42.711Z,12.25
2022-09-24T02:47:10.505Z,12.28
2022-09-24T02:49:37.992Z,12.29
2022-09-24T02:52:05.646Z,12.30
2022-09-24T02:54:34.545Z,12.31
2022-09-24T02:57:02.028Z,12.35
2022-09-24T02:59:29.518Z,12.33
2022-09-24T03:01:57.178Z,12.36
2022-09-24T03:04:25.330Z,12.41
2022-09-24T03:06:52.823Z,12.46
2022-09-24T03:09:20.348Z,12.50
2022-09-24T03:11:50.133Z,12.54
2022-09-24T03:14:17.650Z,12.56
2022-09-24T03:16:45.258Z,12.57
2022-09-24T03:19:12.718Z,12.58
2022-09-24T03:21:40.222Z,12.62
2022-09-24T03:24:07.829Z,12.62
2022-09-24T03:26:35.396Z,12.60
2022-09-24T03:29:04.293Z,12.58
2022-09-24T03:31:30.879Z,12.59
2022-09-24T03:33:58.570Z,12.63
2022-09-24T03:36:27.092Z,12.60
2022-09-24T03:38:56.841Z,12.58
2022-09-24T03:41:26.133Z,12.56
2022-09-24T03:43:53.657Z,12.55
2022-09-24T03:46:27.717Z,12.54
2022-09-24T03:48:56.143Z,12.54
2022-09-24T03:51:24.391Z,12.52
2022-09-24T03:53:51.868Z,12.48
2022-09-24T03:56:19.350Z,12.48
2022-09-24T03:58:47.603Z,12.49
2022-09-24T04:01:21.756Z,12.50
2022-09-24T04:03:51.190Z,12.48
2022-09-24T04:06:24.791Z,12.46
2022-09-24T04:08:53.732Z,12.42
2022-09-24T04:11:21.276Z,12.39
2022-09-24T04:13:48.883Z,12.38
2022-09-24T04:16:16.765Z,12.37
2022-09-24T04:18:44.425Z,12.34
2022-09-24T04:21:13.386Z,12.33
2022-09-24T04:23:40.935Z,12.34
2022-09-24T04:26:08.482Z,12.33
2022-09-24T04:28:36.022Z,12.35
2022-09-24T04:31:03.662Z,12.35
2022-09-24T04:33:31.298Z,12.35
2022-09-24T04:35:58.840Z,12.34
2022-09-24T04:38:37.331Z,12.34
2022-09-24T04:41:06.989Z,12.35
2022-09-24T04:43:34.864Z,12.38
2022-09-24T04:46:02.762Z,12.40
2022-09-24T04:48:30.825Z,12.40
2022-09-24T04:50:58.584Z,12.36
2022-09-24T04:53:27.701Z,12.34
2022-09-24T04:55:55.309Z,12.31
2022-09-24T04:58:24.991Z,12.27
2022-09-24T05:00:53.274Z,12.26
2022-09-24T05:03:21.228Z,12.24
2022-09-24T05:05:50.946Z,12.24
2022-09-24T05:11:13.477Z,12.19
2022-09-24T05:13:42.608Z,12.18
2022-09-24T05:16:11.563Z,12.15
2022-09-24T05:18:41.712Z,12.16
2022-09-24T05:21:10.941Z,12.16
2022-09-24T05:23:39.087Z,12.19
2022-09-24T05:26:24.333Z,12.21
2022-09-24T05:28:53.711Z,12.24
2022-09-24T05:31:21.347Z,12.26
2022-09-24T05:33:49.370Z,12.27
2022-09-24T05:36:16.960Z,12.28
2022-09-24T05:38:44.673Z,12.29
2022-09-24T05:41:12.445Z,12.28
2022-09-24T05:43:41.157Z,12.30
2022-09-24T05:46:10.287Z,12.32
2022-09-24T05:48:38.735Z,12.36
2022-09-24T05:51:08.378Z,12.40
2022-09-24T05:53:37.376Z,12.40
2022-09-24T05:56:04.905Z,12.41
2022-09-24T05:58:33.992Z,12.43
2022-09-24T06:01:03.046Z,12.46
2022-09-24T06:03:36.271Z,12.50
2022-09-24T06:06:08.428Z,12.54
2022-09-24T06:08:36.252Z,12.58
2022-09-24T06:11:08.894Z,12.63
2022-09-24T06:22:20.757Z,12.73
2022-09-24T06:24:52.133Z,12.80
2022-09-24T06:27:22.256Z,12.85
2022-09-24T06:29:51.717Z,12.89
2022-09-24T06:32:39.297Z,12.92
2022-09-24T06:35:09.195Z,12.93
2022-09-24T06:37:37.966Z,12.95
2022-09-24T06:40:06.742Z,12.97
2022-09-24T06:42:34.795Z,12.97
2022-09-24T06:47:37.542Z,12.96
2022-09-24T06:50:06.142Z,13.02
2022-09-24T06:52:34.999Z,13.09
2022-09-24T06:55:02.512Z,13.15
2022-09-24T06:57:31.708Z,13.19
2022-09-24T06:59:59.445Z,13.23
2022-09-24T07:02:27.267Z,13.26
2022-09-24T07:05:06.250Z,13.27
2022-09-24T07:07:35.647Z,13.32
2022-09-24T07:10:06.491Z,13.34
2022-09-24T07:12:35.524Z,13.37
2022-09-24T07:15:04.867Z,13.42
2022-09-24T07:17:34.003Z,13.47
2022-09-24T07:20:02.095Z,13.55
2022-09-24T07:22:29.751Z,13.63
2022-09-24T07:24:58.699Z,13.69
2022-09-24T07:27:26.687Z,13.75
2022-09-24T07:29:54.605Z,13.82
2022-09-24T07:32:25.062Z,13.88
2022-09-24T07:34:57.216Z,13.94
2022-09-24T07:37:25.013Z,13.97
2022-09-24T07:39:52.721Z,14.00
2022-09-24T07:42:21.747Z,14.06
2022-09-24T07:44:49.266Z,14.12
2022-09-24T07:47:16.894Z,14.18
2022-09-24T07:49:44.569Z,14.24
2022-09-24T07:52:12.462Z,14.29
2022-09-24T07:54:39.949Z,14.32
2022-09-24T07:57:12.002Z,14.37
2022-09-24T07:59:41.484Z,14.44
2022-09-24T08:02:16.161Z,14.49
2022-09-24T08:38:22.532Z,14.91
2022-09-24T08:47:32.367Z,15.04
2022-09-24T08:50:17.628Z,15.09
2022-09-24T08:53:26.971Z,15.18
2022-09-24T09:04:19.637Z,15.31
2022-09-24T09:10:45.149Z,15.42
2022-09-24T09:14:14.457Z,15.42
2022-09-24T09:28:03.039Z,15.63
2022-09-24T09:30:55.148Z,15.67
2022-09-24T09:33:41.667Z,15.77
2022-09-24T09:36:47.147Z,15.93
2022-09-24T09:40:03.980Z,16.08
2022-09-24T09:42:52.467Z,16.14
2022-09-24T09:49:06.496Z,16.26
2022-09-24T09:51:47.091Z,16.33
2022-09-24T11:14:31.123Z,16.97
2022-09-24T12:00:14.074Z,17.29
2022-09-24T12:02:57.601Z,17.29
2022-09-24T12:15:29.457Z,17.58
2022-09-24T12:18:14.927Z,17.71
2022-09-24T12:21:07.430Z,17.83
2022-09-24T12:23:41.792Z,17.92
2022-09-24T12:26:17.601Z,17.97
2022-09-24T12:29:18.812Z,18.08
2022-09-24T12:35:27.114Z,18.28
2022-09-24T12:38:06.185Z,18.31
2022-09-24T12:44:29.869Z,18.28
2022-09-24T12:51:21.363Z,18.26
2022-09-24T12:54:13.000Z,18.24
2022-09-24T12:57:09.084Z,18.23
2022-09-24T12:59:49.275Z,18.21
2022-09-24T13:02:25.552Z,18.17
2022-09-24T13:05:18.983Z,18.14
2022-09-24T13:08:12.396Z,18.08
2022-09-24T13:11:01.166Z,18.01
2022-09-24T13:13:33.542Z,17.97
2022-09-24T13:16:12.193Z,17.94
2022-09-24T13:18:59.970Z,17.92
2022-09-24T14:17:57.152Z,17.34
2022-09-24T15:02:37.013Z,16.71
2022-09-24T15:08:32.006Z,16.68
2022-09-24T15:11:03.997Z,16.66
2022-09-24T15:13:33.572Z,16.64
2022-09-24T15:16:06.784Z,16.62
2022-09-24T15:18:36.454Z,16.58
2022-09-24T15:21:08.411Z,16.56
2022-09-24T15:23:36.389Z,16.53
2022-09-24T15:26:04.949Z,16.51
2022-09-24T15:28:33.925Z,16.46
2022-09-24T15:31:01.571Z,16.42
2022-09-24T15:33:29.464Z,16.39
2022-09-24T15:35:58.909Z,16.35
2022-09-24T15:38:27.130Z,16.33
2022-09-24T15:40:55.242Z,16.30
2022-09-24T15:43:25.155Z,16.26
2022-09-24T15:45:53.078Z,16.25
2022-09-24T15:48:20.934Z,16.25
2022-09-24T15:50:52.051Z,16.25
2022-09-24T15:53:23.759Z,16.26
2022-09-24T15:55:56.529Z,16.25
2022-09-24T15:58:24.267Z,16.23
2022-09-24T16:00:52.513Z,16.19
2022-09-24T16:03:22.933Z,16.13
2022-09-24T16:05:50.528Z,16.11
2022-09-24T16:08:18.763Z,16.08
2022-09-24T16:10:48.130Z,16.03
2022-09-24T16:13:16.762Z,15.98
2022-09-24T16:15:45.346Z,15.95
2022-09-24T16:18:15.150Z,15.93
2022-09-24T16:20:45.276Z,15.92
2022-09-24T16:23:15.139Z,15.92
2022-09-24T16:25:43.315Z,15.91
2022-09-24T16:28:12.093Z,15.89
2022-09-24T16:30:39.521Z,15.88
2022-09-24T16:33:07.300Z,15.89
2022-09-24T16:35:34.831Z,15.86
2022-09-24T16:38:02.343Z,15.85
2022-09-24T16:40:29.813Z,15.80
2022-09-24T16:43:00.624Z,15.77
2022-09-24T16:45:29.509Z,15.77
2022-09-24T16:47:56.982Z,15.76
2022-09-24T16:50:24.529Z,15.76
2022-09-24T16:52:54.822Z,15.74
2022-09-24T16:55:24.092Z,15.73
2022-09-24T16:57:52.302Z,15.72
2022-09-24T17:00:20.149Z,15.70
2022-09-24T17:02:48.963Z,15.66
2022-09-24T17:05:16.616Z,15.62
2022-09-24T17:07:44.131Z,15.59
2022-09-24T17:10:14.156Z,15.57
2022-09-24T17:12:42.855Z,15.57
2022-09-24T17:15:10.861Z,15.58
2022-09-24T17:17:49.079Z,15.60
2022-09-24T17:20:20.297Z,15.59
2022-09-24T17:22:55.041Z,15.58
2022-09-24T17:25:22.703Z,15.59
2022-09-24T17:27:50.189Z,15.59
2022-09-24T17:30:17.665Z,15.60
2022-09-24T17:32:45.124Z,15.60
2022-09-24T17:35:13.472Z,15.59
2022-09-24T17:37:42.820Z,15.58
2022-09-24T17:40:11.001Z,15.57
2022-09-24T17:42:38.657Z,15.57
2022-09-24T17:45:07.554Z,15.57
2022-09-24T17:47:48.947Z,15.56
2022-09-24T17:50:16.700Z,15.52
2022-09-24T17:52:45.492Z,15.47
2022-09-24T17:55:13.052Z,15.43
2022-09-24T17:57:40.581Z,15.43
2022-09-24T18:00:09.536Z,15.38
2022-09-24T18:02:36.984Z,15.33
2022-09-24T18:05:04.619Z,15.28
2022-09-24T18:07:32.029Z,15.23
2022-09-24T18:10:05.497Z,15.21
2022-09-24T18:18:03.067Z,15.12
2022-09-24T18:20:31.819Z,15.12
2022-09-24T18:22:59.388Z,15.11
2022-09-24T18:25:28.393Z,15.11
2022-09-24T18:28:00.775Z,15.11
2022-09-24T18:30:28.395Z,15.06
2022-09-24T18:32:55.894Z,14.99
2022-09-24T18:35:23.400Z,14.96
2022-09-24T18:37:51.024Z,14.93
2022-09-24T18:40:18.664Z,14.91
2022-09-24T18:42:47.488Z,14.90
2022-09-24T18:45:14.940Z,14.94
2022-09-24T18:47:42.435Z,14.97
2022-09-24T18:50:10.464Z,15.00
2022-09-24T18:52:37.947Z,15.03
2022-09-24T18:55:06.730Z,15.03
2022-09-24T18:57:34.248Z,15.04
2022-09-24T19:00:03.219Z,15.00
2022-09-24T19:02:31.368Z,14.98
2022-09-24T19:04:59.013Z,14.94
2022-09-24T19:07:26.552Z,14.89
2022-09-24T19:09:54.015Z,14.80
2022-09-24T19:12:21.527Z,14.74
2022-09-24T19:14:49.688Z,14.68
2022-09-24T19:17:18.857Z,14.63
2022-09-24T19:19:52.161Z,14.61
2022-09-24T19:22:19.998Z,14.60
2022-09-24T19:24:47.879Z,14.59
2022-09-24T19:27:15.354Z,14.57
2022-09-24T19:32:21.515Z,14.63
2022-09-24T19:37:24.599Z,14.65
2022-09-24T19:39:52.072Z,14.64
2022-09-24T19:42:19.505Z,14.60
2022-09-24T19:44:46.980Z,14.59
2022-09-24T19:47:14.413Z,14.58
2022-09-24T19:49:43.223Z,14.57
2022-09-24T19:52:10.653Z,14.55
2022-09-24T19:54:38.055Z,14.51
2022-09-24T19:57:05.698Z,14.48
2022-09-24T19:59:33.130Z,14.42
2022-09-24T20:02:00.681Z,14.37
2022-09-24T20:04:28.574Z,14.36
2022-09-24T20:07:02.306Z,14.38
2022-09-24T20:09:33.007Z,14.39
2022-09-24T20:12:00.937Z,14.38
2022-09-24T20:14:33.433Z,14.38
2022-09-24T20:17:01.641Z,14.37
2022-09-24T20:19:29.271Z,14.35
2022-09-24T20:21:58.974Z,14.32
2022-09-24T20:24:26.790Z,14.31
2022-09-24T20:27:14.540Z,14.32
2022-09-24T20:29:44.497Z,14.32
2022-09-24T20:32:15.588Z,14.32
2022-09-24T20:34:44.004Z,14.34
2022-09-24T20:37:13.986Z,14.37
2022-09-24T20:39:41.743Z,14.39
2022-09-24T20:42:09.922Z,14.37
2022-09-24T20:44:37.794Z,14.32
2022-09-24T20:47:05.769Z,14.30
2022-09-24T20:49:34.826Z,14.29
2022-09-24T20:52:03.339Z,14.30
2022-09-24T20:54:33.638Z,14.32
2022-09-24T20:57:01.350Z,14.33
2022-09-24T20:59:30.672Z,14.32
2022-09-24T21:01:58.424Z,14.33
2022-09-24T21:04:27.037Z,14.31
2022-09-24T21:06:55.597Z,14.31
2022-09-24T21:09:23.700Z,14.30
2022-09-24T21:11:54.542Z,14.28
2022-09-24T21:14:22.780Z,14.26
2022-09-24T21:16:50.533Z,14.25
2022-09-24T21:19:18.319Z,14.26
2022-09-24T21:21:46.998Z,14.26
2022-09-24T21:24:16.550Z,14.26
2022-09-24T21:26:45.719Z,14.26
2022-09-24T21:29:17.511Z,14.26
2022-09-24T21:31:46.846Z,14.24
2022-09-24T21:34:16.544Z,14.23
2022-09-24T21:36:46.565Z,14.23
2022-09-24T21:39:16.805Z,14.22
2022-09-24T21:41:48.230Z,14.22
2022-09-24T21:44:19.509Z,14.22
2022-09-24T21:46:47.872Z,14.22
2022-09-24T21:49:17.132Z,14.21
2022-09-24T21:51:45.578Z,14.18
2022-09-24T21:54:15.491Z,14.17
2022-09-24T21:56:43.956Z,14.17
2022-09-24T21:59:33.184Z,14.18
2022-09-24T22:02:03.323Z,14.19
2022-09-24T22:04:32.592Z,14.22
2022-09-24T22:07:00.533Z,14.23
2022-09-24T22:09:29.084Z,14.25
2022-09-24T22:11:58.015Z,14.26
2022-09-24T22:14:26.145Z,14.28
2022-09-24T22:16:56.226Z,14.30
2022-09-24T22:19:25.931Z,14.32
2022-09-24T22:21:54.031Z,14.28
2022-09-24T22:24:22.195Z,14.26
2022-09-24T22:26:50.438Z,14.24
2022-09-24T22:29:18.502Z,14.20
2022-09-24T22:31:46.210Z,14.16
2022-09-24T22:34:31.673Z,14.13
2022-09-24T22:37:01.273Z,14.14
2022-09-24T22:39:29.102Z,14.14
2022-09-24T22:41:57.076Z,14.12
2022-09-24T22:44:25.079Z,14.12
2022-09-24T22:46:52.706Z,14.12
2022-09-24T22:49:20.838Z,14.12
2022-09-24T22:51:48.840Z,14.15
2022-09-24T22:54:18.500Z,14.11
2022-09-24T22:56:46.417Z,14.05
2022-09-24T22:59:14.407Z,14.01
2022-09-24T23:01:44.470Z,14.01
2022-09-24T23:04:15.396Z,14.04
2022-09-24T23:06:44.494Z,14.05
2022-09-24T23:09:12.688Z,14.08
2022-09-24T23:11:42.034Z,14.12
2022-09-24T23:14:14.418Z,14.15
2022-09-24T23:16:43.877Z,14.17
2022-09-24T23:19:15.475Z,14.20
2022-09-24T23:21:44.009Z,14.23
2022-09-24T23:24:15.850Z,14.25
2022-09-24T23:26:45.808Z,14.27
2022-09-24T23:29:14.627Z,14.29
2022-09-24T23:31:42.313Z,14.31
2022-09-24T23:34:10.801Z,14.28
2022-09-24T23:36:39.276Z,14.26
2022-09-24T23:39:07.318Z,14.25
2022-09-24T23:41:35.317Z,14.25
2022-09-24T23:44:04.947Z,14.26
2022-09-24T23:46:33.981Z,14.27
2022-09-24T23:49:02.067Z,14.27
2022-09-24T23:51:29.956Z,14.27
2022-09-24T23:53:57.789Z,14.29
2022-09-24T23:56:25.856Z,14.31
2022-09-24T23:58:55.098Z,14.32
